sensor_id;sensor_type;location;lat;lon;timestamp;P1;durP1;ratioP1;P2;durP2;ratioP2
30872;SDS011;17579;42.690;2.586;2023-08-01T00:01:14;5.68;;;3.65;;
30872;SDS011;17579;42.690;2.586;2023-08-01T00:03:40;6.35;;;4.55;;
30872;SDS011;17579;42.690;2.586;2023-08-01T00:06:15;4.07;;;3.70;;
30872;SDS011;17579;42.690;2.586;2023-08-01T00:08:40;3.47;;;3.00;;
30872;SDS011;17579;42.690;2.586;2023-08-01T00:11:15;5.80;;;3.72;;
30872;SDS011;17579;42.690;2.586;2023-08-01T00:13:41;4.00;;;3.60;;
30872;SDS011;17579;42.690;2.586;2023-08-01T00:16:10;3.92;;;3.53;;
30872;SDS011;17579;42.690;2.586;2023-08-01T00:18:36;4.50;;;3.92;;
30872;SDS011;17579;42.690;2.586;2023-08-01T00:21:10;4.35;;;3.80;;
30872;SDS011;17579;42.690;2.586;2023-08-01T00:23:39;5.50;;;3.70;;
30872;SDS011;17579;42.690;2.586;2023-08-01T00:26:25;5.32;;;3.53;;
30872;SDS011;17579;42.690;2.586;2023-08-01T00:28:51;5.70;;;4.03;;
30872;SDS011;17579;42.690;2.586;2023-08-01T00:31:30;4.55;;;3.88;;
30872;SDS011;17579;42.690;2.586;2023-08-01T00:34:16;3.88;;;3.53;;
30872;SDS011;17579;42.690;2.586;2023-08-01T00:36:41;4.00;;;3.60;;
30872;SDS011;17579;42.690;2.586;2023-08-01T00:39:17;3.95;;;3.53;;
30872;SDS011;17579;42.690;2.586;2023-08-01T00:42:11;4.07;;;3.67;;
30872;SDS011;17579;42.690;2.586;2023-08-01T00:44:40;5.55;;;3.75;;
30872;SDS011;17579;42.690;2.586;2023-08-01T00:47:16;4.70;;;3.95;;
30872;SDS011;17579;42.690;2.586;2023-08-01T00:49:55;4.18;;;3.78;;
30872;SDS011;17579;42.690;2.586;2023-08-01T00:52:37;4.03;;;2.95;;
30872;SDS011;17579;42.690;2.586;2023-08-01T00:55:08;4.40;;;3.90;;
30872;SDS011;17579;42.690;2.586;2023-08-01T00:57:37;4.07;;;3.60;;
30872;SDS011;17579;42.690;2.586;2023-08-01T01:00:03;3.92;;;3.53;;
30872;SDS011;17579;42.690;2.586;2023-08-01T01:02:33;3.78;;;3.13;;
30872;SDS011;17579;42.690;2.586;2023-08-01T01:05:05;3.47;;;3.17;;
30872;SDS011;17579;42.690;2.586;2023-08-01T01:07:35;3.88;;;3.35;;
30872;SDS011;17579;42.690;2.586;2023-08-01T01:10:07;5.72;;;3.67;;
30872;SDS011;17579;42.690;2.586;2023-08-01T01:12:36;3.85;;;3.22;;
30872;SDS011;17579;42.690;2.586;2023-08-01T01:15:04;3.40;;;3.10;;
30872;SDS011;17579;42.690;2.586;2023-08-01T01:17:30;3.42;;;3.13;;
30872;SDS011;17579;42.690;2.586;2023-08-01T01:20:12;3.85;;;3.50;;
30872;SDS011;17579;42.690;2.586;2023-08-01T01:22:51;3.90;;;3.40;;
30872;SDS011;17579;42.690;2.586;2023-08-01T01:25:22;4.30;;;3.20;;
30872;SDS011;17579;42.690;2.586;2023-08-01T01:28:01;3.50;;;3.20;;
30872;SDS011;17579;42.690;2.586;2023-08-01T01:30:29;3.85;;;3.45;;
30872;SDS011;17579;42.690;2.586;2023-08-01T01:33:09;3.28;;;2.97;;
30872;SDS011;17579;42.690;2.586;2023-08-01T01:35:45;3.75;;;3.10;;
30872;SDS011;17579;42.690;2.586;2023-08-01T01:38:15;3.35;;;3.05;;
30872;SDS011;17579;42.690;2.586;2023-08-01T01:40:43;3.45;;;3.15;;
30872;SDS011;17579;42.690;2.586;2023-08-01T01:43:09;3.65;;;3.33;;
30872;SDS011;17579;42.690;2.586;2023-08-01T01:45:35;3.85;;;3.20;;
30872;SDS011;17579;42.690;2.586;2023-08-01T01:48:00;3.70;;;3.20;;
30872;SDS011;17579;42.690;2.586;2023-08-01T01:50:40;4.00;;;3.42;;
30872;SDS011;17579;42.690;2.586;2023-08-01T01:53:06;3.40;;;3.10;;
30872;SDS011;17579;42.690;2.586;2023-08-01T01:55:31;3.65;;;3.08;;
30872;SDS011;17579;42.690;2.586;2023-08-01T01:58:00;3.30;;;2.97;;
30872;SDS011;17579;42.690;2.586;2023-08-01T02:00:31;3.75;;;3.05;;
30872;SDS011;17579;42.690;2.586;2023-08-01T02:02:57;4.35;;;3.50;;
30872;SDS011;17579;42.690;2.586;2023-08-01T02:05:23;3.50;;;3.13;;
30872;SDS011;17579;42.690;2.586;2023-08-01T02:07:51;4.05;;;3.53;;
30872;SDS011;17579;42.690;2.586;2023-08-01T02:10:16;3.97;;;2.97;;
30872;SDS011;17579;42.690;2.586;2023-08-01T02:15:51;3.95;;;3.55;;
30872;SDS011;17579;42.690;2.586;2023-08-01T02:18:22;3.30;;;3.00;;
30872;SDS011;17579;42.690;2.586;2023-08-01T02:20:50;4.22;;;3.08;;
30872;SDS011;17579;42.690;2.586;2023-08-01T02:25:57;3.35;;;2.97;;
30872;SDS011;17579;42.690;2.586;2023-08-01T02:28:26;3.83;;;2.90;;
30872;SDS011;17579;42.690;2.586;2023-08-01T02:30:51;2.85;;;2.65;;
30872;SDS011;17579;42.690;2.586;2023-08-01T02:33:17;3.90;;;3.50;;
30872;SDS011;17579;42.690;2.586;2023-08-01T02:35:46;3.13;;;2.92;;
30872;SDS011;17579;42.690;2.586;2023-08-01T02:38:12;5.85;;;2.92;;
30872;SDS011;17579;42.690;2.586;2023-08-01T02:40:41;3.92;;;3.53;;
30872;SDS011;17579;42.690;2.586;2023-08-01T02:43:09;4.28;;;3.88;;
30872;SDS011;17579;42.690;2.586;2023-08-01T02:45:34;3.28;;;2.97;;
30872;SDS011;17579;42.690;2.586;2023-08-01T02:48:00;5.75;;;2.97;;
30872;SDS011;17579;42.690;2.586;2023-08-01T02:50:33;5.53;;;3.35;;
30872;SDS011;17579;42.690;2.586;2023-08-01T02:53:01;4.30;;;3.10;;
30872;SDS011;17579;42.690;2.586;2023-08-01T02:55:37;3.35;;;3.05;;
30872;SDS011;17579;42.690;2.586;2023-08-01T02:58:22;5.13;;;3.42;;
30872;SDS011;17579;42.690;2.586;2023-08-01T03:00:51;3.70;;;3.25;;
30872;SDS011;17579;42.690;2.586;2023-08-01T03:03:19;5.60;;;3.55;;
30872;SDS011;17579;42.690;2.586;2023-08-01T03:05:44;4.65;;;3.20;;
30872;SDS011;17579;42.690;2.586;2023-08-01T03:08:12;5.25;;;3.53;;
30872;SDS011;17579;42.690;2.586;2023-08-01T03:10:38;3.50;;;3.20;;
30872;SDS011;17579;42.690;2.586;2023-08-01T03:13:11;5.00;;;3.72;;
30872;SDS011;17579;42.690;2.586;2023-08-01T03:15:37;3.92;;;3.60;;
30872;SDS011;17579;42.690;2.586;2023-08-01T03:18:03;4.03;;;3.63;;
30872;SDS011;17579;42.690;2.586;2023-08-01T03:20:29;3.80;;;3.10;;
30872;SDS011;17579;42.690;2.586;2023-08-01T03:22:54;5.22;;;3.00;;
30872;SDS011;17579;42.690;2.586;2023-08-01T03:25:23;3.47;;;3.17;;
30872;SDS011;17579;42.690;2.586;2023-08-01T03:27:48;4.90;;;3.60;;
30872;SDS011;17579;42.690;2.586;2023-08-01T03:30:17;4.18;;;3.60;;
30872;SDS011;17579;42.690;2.586;2023-08-01T03:32:42;4.70;;;4.25;;
30872;SDS011;17579;42.690;2.586;2023-08-01T03:35:08;4.70;;;4.32;;
30872;SDS011;17579;42.690;2.586;2023-08-01T03:37:34;4.47;;;4.07;;
30872;SDS011;17579;42.690;2.586;2023-08-01T03:39:59;6.65;;;4.80;;
30872;SDS011;17579;42.690;2.586;2023-08-01T03:42:28;5.57;;;4.80;;
30872;SDS011;17579;42.690;2.586;2023-08-01T03:44:53;4.45;;;4.05;;
30872;SDS011;17579;42.690;2.586;2023-08-01T03:47:21;6.93;;;4.00;;
30872;SDS011;17579;42.690;2.586;2023-08-01T03:49:47;5.20;;;4.03;;
30872;SDS011;17579;42.690;2.586;2023-08-01T03:52:13;5.78;;;3.65;;
30872;SDS011;17579;42.690;2.586;2023-08-01T03:54:38;3.92;;;3.47;;
30872;SDS011;17579;42.690;2.586;2023-08-01T03:57:09;4.97;;;3.78;;
30872;SDS011;17579;42.690;2.586;2023-08-01T03:59:40;4.05;;;3.53;;
30872;SDS011;17579;42.690;2.586;2023-08-01T04:02:10;3.30;;;3.00;;
30872;SDS011;17579;42.690;2.586;2023-08-01T04:04:38;3.90;;;3.20;;
30872;SDS011;17579;42.690;2.586;2023-08-01T04:07:04;3.28;;;2.97;;
30872;SDS011;17579;42.690;2.586;2023-08-01T04:09:39;3.72;;;3.30;;
30872;SDS011;17579;42.690;2.586;2023-08-01T04:12:10;3.10;;;2.80;;
30872;SDS011;17579;42.690;2.586;2023-08-01T04:14:53;3.75;;;2.92;;
30872;SDS011;17579;42.690;2.586;2023-08-01T04:17:19;3.92;;;3.03;;
30872;SDS011;17579;42.690;2.586;2023-08-01T04:22:33;3.92;;;3.30;;
30872;SDS011;17579;42.690;2.586;2023-08-01T04:25:04;3.40;;;3.08;;
30872;SDS011;17579;42.690;2.586;2023-08-01T04:27:50;4.43;;;3.38;;
30872;SDS011;17579;42.690;2.586;2023-08-01T04:30:59;4.32;;;3.10;;
30872;SDS011;17579;42.690;2.586;2023-08-01T04:33:15;4.88;;;3.63;;
30872;SDS011;17579;42.690;2.586;2023-08-01T04:35:46;5.15;;;3.38;;
30872;SDS011;17579;42.690;2.586;2023-08-01T04:38:16;3.95;;;3.55;;
30872;SDS011;17579;42.690;2.586;2023-08-01T04:40:44;3.90;;;3.50;;
30872;SDS011;17579;42.690;2.586;2023-08-01T04:43:11;3.88;;;3.38;;
30872;SDS011;17579;42.690;2.586;2023-08-01T04:45:43;4.45;;;3.42;;
30872;SDS011;17579;42.690;2.586;2023-08-01T04:48:08;3.70;;;2.97;;
30872;SDS011;17579;42.690;2.586;2023-08-01T04:50:41;4.43;;;3.42;;
30872;SDS011;17579;42.690;2.586;2023-08-01T04:53:33;3.50;;;2.90;;
30872;SDS011;17579;42.690;2.586;2023-08-01T04:56:01;3.60;;;3.30;;
30872;SDS011;17579;42.690;2.586;2023-08-01T04:58:30;2.83;;;2.50;;
30872;SDS011;17579;42.690;2.586;2023-08-01T05:01:01;3.67;;;3.13;;
30872;SDS011;17579;42.690;2.586;2023-08-01T05:03:27;3.55;;;3.03;;
30872;SDS011;17579;42.690;2.586;2023-08-01T05:05:52;3.33;;;2.85;;
30872;SDS011;17579;42.690;2.586;2023-08-01T05:08:18;3.70;;;3.10;;
30872;SDS011;17579;42.690;2.586;2023-08-01T05:10:50;3.88;;;3.00;;
30872;SDS011;17579;42.690;2.586;2023-08-01T05:13:19;3.63;;;3.30;;
30872;SDS011;17579;42.690;2.586;2023-08-01T05:15:49;3.33;;;3.03;;
30872;SDS011;17579;42.690;2.586;2023-08-01T05:18:16;3.83;;;3.22;;
30872;SDS011;17579;42.690;2.586;2023-08-01T05:20:44;3.95;;;3.55;;
30872;SDS011;17579;42.690;2.586;2023-08-01T05:23:10;3.70;;;3.15;;
30872;SDS011;17579;42.690;2.586;2023-08-01T05:25:35;3.72;;;3.17;;
30872;SDS011;17579;42.690;2.586;2023-08-01T05:28:01;3.53;;;3.20;;
30872;SDS011;17579;42.690;2.586;2023-08-01T05:30:30;5.60;;;3.83;;
30872;SDS011;17579;42.690;2.586;2023-08-01T05:32:55;3.25;;;2.90;;
30872;SDS011;17579;42.690;2.586;2023-08-01T05:35:21;3.85;;;3.03;;
30872;SDS011;17579;42.690;2.586;2023-08-01T05:37:54;3.42;;;3.10;;
30872;SDS011;17579;42.690;2.586;2023-08-01T05:40:27;3.40;;;3.10;;
30872;SDS011;17579;42.690;2.586;2023-08-01T05:43:13;3.58;;;3.28;;
30872;SDS011;17579;42.690;2.586;2023-08-01T05:45:42;4.80;;;3.05;;
30872;SDS011;17579;42.690;2.586;2023-08-01T05:48:10;4.10;;;3.10;;
30872;SDS011;17579;42.690;2.586;2023-08-01T05:50:39;4.95;;;3.58;;
30872;SDS011;17579;42.690;2.586;2023-08-01T05:53:04;3.30;;;3.00;;
30872;SDS011;17579;42.690;2.586;2023-08-01T05:55:32;4.00;;;3.30;;
30872;SDS011;17579;42.690;2.586;2023-08-01T05:57:58;3.40;;;3.03;;
30872;SDS011;17579;42.690;2.586;2023-08-01T06:00:24;3.65;;;3.25;;
30872;SDS011;17579;42.690;2.586;2023-08-01T06:02:50;3.20;;;2.90;;
30872;SDS011;17579;42.690;2.586;2023-08-01T06:05:18;4.63;;;3.15;;
30872;SDS011;17579;42.690;2.586;2023-08-01T06:07:44;4.53;;;3.63;;
30872;SDS011;17579;42.690;2.586;2023-08-01T06:10:16;4.20;;;3.22;;
30872;SDS011;17579;42.690;2.586;2023-08-01T06:12:49;4.10;;;3.28;;
30872;SDS011;17579;42.690;2.586;2023-08-01T06:15:33;3.70;;;3.40;;
30872;SDS011;17579;42.690;2.586;2023-08-01T06:18:31;4.15;;;3.15;;
30872;SDS011;17579;42.690;2.586;2023-08-01T06:21:21;4.13;;;3.67;;
30872;SDS011;17579;42.690;2.586;2023-08-01T06:23:55;4.25;;;3.85;;
30872;SDS011;17579;42.690;2.586;2023-08-01T06:26:25;3.80;;;3.28;;
30872;SDS011;17579;42.690;2.586;2023-08-01T06:28:51;5.55;;;3.65;;
30872;SDS011;17579;42.690;2.586;2023-08-01T06:31:18;4.00;;;3.40;;
30872;SDS011;17579;42.690;2.586;2023-08-01T06:33:44;4.20;;;3.80;;
30872;SDS011;17579;42.690;2.586;2023-08-01T06:36:41;3.90;;;3.55;;
30872;SDS011;17579;42.690;2.586;2023-08-01T06:39:35;3.67;;;3.38;;
30872;SDS011;17579;42.690;2.586;2023-08-01T06:42:01;3.70;;;3.40;;
30872;SDS011;17579;42.690;2.586;2023-08-01T06:44:37;4.40;;;3.78;;
30872;SDS011;17579;42.690;2.586;2023-08-01T06:47:09;4.28;;;3.30;;
30872;SDS011;17579;42.690;2.586;2023-08-01T06:49:38;5.60;;;3.80;;
30872;SDS011;17579;42.690;2.586;2023-08-01T06:52:18;4.82;;;3.55;;
30872;SDS011;17579;42.690;2.586;2023-08-01T06:54:49;3.70;;;3.40;;
30872;SDS011;17579;42.690;2.586;2023-08-01T06:57:22;5.72;;;3.72;;
30872;SDS011;17579;42.690;2.586;2023-08-01T06:59:55;4.20;;;3.70;;
30872;SDS011;17579;42.690;2.586;2023-08-01T07:02:21;6.00;;;4.38;;
30872;SDS011;17579;42.690;2.586;2023-08-01T07:04:53;4.07;;;3.70;;
30872;SDS011;17579;42.690;2.586;2023-08-01T07:07:21;4.38;;;3.97;;
30872;SDS011;17579;42.690;2.586;2023-08-01T07:10:10;5.53;;;4.30;;
30872;SDS011;17579;42.690;2.586;2023-08-01T07:12:56;4.93;;;4.43;;
30872;SDS011;17579;42.690;2.586;2023-08-01T07:15:44;4.95;;;4.30;;
30872;SDS011;17579;42.690;2.586;2023-08-01T07:18:42;4.90;;;4.40;;
30872;SDS011;17579;42.690;2.586;2023-08-01T07:21:17;5.60;;;4.70;;
30872;SDS011;17579;42.690;2.586;2023-08-01T07:24:35;7.80;;;5.07;;
30872;SDS011;17579;42.690;2.586;2023-08-01T07:27:21;6.93;;;4.72;;
30872;SDS011;17579;42.690;2.586;2023-08-01T07:29:49;5.00;;;4.28;;
30872;SDS011;17579;42.690;2.586;2023-08-01T07:32:17;6.97;;;5.15;;
30872;SDS011;17579;42.690;2.586;2023-08-01T07:34:43;5.55;;;4.68;;
30872;SDS011;17579;42.690;2.586;2023-08-01T07:37:24;5.68;;;4.40;;
30872;SDS011;17579;42.690;2.586;2023-08-01T07:39:59;4.65;;;4.13;;
30872;SDS011;17579;42.690;2.586;2023-08-01T07:42:33;6.47;;;5.25;;
30872;SDS011;17579;42.690;2.586;2023-08-01T07:45:19;7.80;;;4.40;;
30872;SDS011;17579;42.690;2.586;2023-08-01T07:47:57;7.95;;;4.43;;
30872;SDS011;17579;42.690;2.586;2023-08-01T07:50:55;5.88;;;4.75;;
30872;SDS011;17579;42.690;2.586;2023-08-01T07:53:30;6.88;;;5.00;;
30872;SDS011;17579;42.690;2.586;2023-08-01T07:55:58;13.38;;;5.30;;
30872;SDS011;17579;42.690;2.586;2023-08-01T07:58:44;5.82;;;4.40;;
30872;SDS011;17579;42.690;2.586;2023-08-01T08:01:09;5.72;;;5.13;;
30872;SDS011;17579;42.690;2.586;2023-08-01T08:03:35;5.75;;;5.07;;
30872;SDS011;17579;42.690;2.586;2023-08-01T08:06:06;5.07;;;4.25;;
30872;SDS011;17579;42.690;2.586;2023-08-01T08:08:52;4.97;;;4.47;;
30872;SDS011;17579;42.690;2.586;2023-08-01T08:11:23;10.52;;;4.55;;
30872;SDS011;17579;42.690;2.586;2023-08-01T08:13:58;8.40;;;4.90;;
30872;SDS011;17579;42.690;2.586;2023-08-01T08:16:29;5.30;;;4.80;;
30872;SDS011;17579;42.690;2.586;2023-08-01T08:19:14;5.88;;;4.80;;
30872;SDS011;17579;42.690;2.586;2023-08-01T08:21:56;6.00;;;5.07;;
30872;SDS011;17579;42.690;2.586;2023-08-01T08:24:24;5.40;;;4.90;;
30872;SDS011;17579;42.690;2.586;2023-08-01T08:26:49;6.28;;;4.68;;
30872;SDS011;17579;42.690;2.586;2023-08-01T08:29:15;8.57;;;4.78;;
30872;SDS011;17579;42.690;2.586;2023-08-01T08:31:46;5.20;;;4.60;;
30872;SDS011;17579;42.690;2.586;2023-08-01T08:34:18;6.03;;;5.13;;
30872;SDS011;17579;42.690;2.586;2023-08-01T08:36:43;5.25;;;4.57;;
30872;SDS011;17579;42.690;2.586;2023-08-01T08:41:58;5.82;;;5.22;;
30872;SDS011;17579;42.690;2.586;2023-08-01T08:44:48;6.53;;;5.18;;
30872;SDS011;17579;42.690;2.586;2023-08-01T08:47:21;4.75;;;4.20;;
30872;SDS011;17579;42.690;2.586;2023-08-01T08:49:54;5.93;;;4.90;;
30872;SDS011;17579;42.690;2.586;2023-08-01T08:52:43;5.35;;;4.85;;
30872;SDS011;17579;42.690;2.586;2023-08-01T08:55:10;5.60;;;4.80;;
30872;SDS011;17579;42.690;2.586;2023-08-01T08:57:39;4.97;;;4.47;;
30872;SDS011;17579;42.690;2.586;2023-08-01T09:00:12;5.60;;;5.00;;
30872;SDS011;17579;42.690;2.586;2023-08-01T09:02:38;5.00;;;4.50;;
30872;SDS011;17579;42.690;2.586;2023-08-01T09:05:06;5.72;;;4.88;;
30872;SDS011;17579;42.690;2.586;2023-08-01T09:07:35;4.75;;;4.25;;
30872;SDS011;17579;42.690;2.586;2023-08-01T09:10:13;5.45;;;4.95;;
30872;SDS011;17579;42.690;2.586;2023-08-01T09:12:39;4.90;;;4.40;;
30872;SDS011;17579;42.690;2.586;2023-08-01T09:15:04;5.40;;;4.90;;
30872;SDS011;17579;42.690;2.586;2023-08-01T09:26:00;5.80;;;4.60;;
30872;SDS011;17579;42.690;2.586;2023-08-01T09:28:28;5.70;;;5.10;;
30872;SDS011;17579;42.690;2.586;2023-08-01T09:31:01;5.60;;;5.10;;
30872;SDS011;17579;42.690;2.586;2023-08-01T09:36:10;5.72;;;5.10;;
30872;SDS011;17579;42.690;2.586;2023-08-01T09:39:15;6.47;;;5.85;;
30872;SDS011;17579;42.690;2.586;2023-08-01T09:41:43;5.93;;;5.38;;
30872;SDS011;17579;42.690;2.586;2023-08-01T09:44:20;6.45;;;5.85;;
30872;SDS011;17579;42.690;2.586;2023-08-01T09:49:48;6.80;;;6.10;;
30872;SDS011;17579;42.690;2.586;2023-08-01T09:52:15;6.85;;;6.05;;
30872;SDS011;17579;42.690;2.586;2023-08-01T09:54:51;6.13;;;5.53;;
30872;SDS011;17579;42.690;2.586;2023-08-01T09:57:19;6.75;;;6.15;;
30872;SDS011;17579;42.690;2.586;2023-08-01T09:59:56;6.82;;;6.13;;
30872;SDS011;17579;42.690;2.586;2023-08-01T10:02:23;7.00;;;6.40;;
30872;SDS011;17579;42.690;2.586;2023-08-01T10:05:04;7.38;;;6.68;;
30872;SDS011;17579;42.690;2.586;2023-08-01T10:07:34;6.72;;;6.00;;
30872;SDS011;17579;42.690;2.586;2023-08-01T10:10:13;6.57;;;5.88;;
30872;SDS011;17579;42.690;2.586;2023-08-01T10:12:43;6.00;;;5.40;;
30872;SDS011;17579;42.690;2.586;2023-08-01T10:15:20;6.65;;;5.95;;
30872;SDS011;17579;42.690;2.586;2023-08-01T10:17:48;6.32;;;5.72;;
30872;SDS011;17579;42.690;2.586;2023-08-01T10:20:20;6.63;;;5.93;;
30872;SDS011;17579;42.690;2.586;2023-08-01T10:22:52;6.10;;;5.50;;
30872;SDS011;17579;42.690;2.586;2023-08-01T10:25:23;6.72;;;5.43;;
30872;SDS011;17579;42.690;2.586;2023-08-01T10:30:49;6.78;;;6.07;;
30872;SDS011;17579;42.690;2.586;2023-08-01T10:33:14;5.78;;;5.18;;
30872;SDS011;17579;42.690;2.586;2023-08-01T10:35:43;7.20;;;6.25;;
30872;SDS011;17579;42.690;2.586;2023-08-01T10:38:17;6.20;;;5.55;;
30872;SDS011;17579;42.690;2.586;2023-08-01T10:40:52;6.53;;;5.45;;
30872;SDS011;17579;42.690;2.586;2023-08-01T10:43:19;7.80;;;5.65;;
30872;SDS011;17579;42.690;2.586;2023-08-01T10:48:57;5.47;;;4.97;;
30872;SDS011;17579;42.690;2.586;2023-08-01T10:51:14;5.50;;;4.95;;
30872;SDS011;17579;42.690;2.586;2023-08-01T10:53:52;5.78;;;5.18;;
30872;SDS011;17579;42.690;2.586;2023-08-01T10:56:19;5.50;;;5.00;;
30872;SDS011;17579;42.690;2.586;2023-08-01T10:58:50;5.53;;;4.82;;
30872;SDS011;17579;42.690;2.586;2023-08-01T11:01:17;5.25;;;4.75;;
30872;SDS011;17579;42.690;2.586;2023-08-01T11:03:43;5.72;;;5.07;;
30872;SDS011;17579;42.690;2.586;2023-08-01T11:06:16;5.22;;;4.72;;
30872;SDS011;17579;42.690;2.586;2023-08-01T11:08:44;5.07;;;4.55;;
30872;SDS011;17579;42.690;2.586;2023-08-01T11:11:13;4.72;;;4.32;;
30872;SDS011;17579;42.690;2.586;2023-08-01T11:13:49;4.97;;;4.50;;
30872;SDS011;17579;42.690;2.586;2023-08-01T11:16:45;6.03;;;4.60;;
30872;SDS011;17579;42.690;2.586;2023-08-01T11:21:39;6.40;;;4.55;;
30872;SDS011;17579;42.690;2.586;2023-08-01T11:24:14;5.18;;;4.70;;
30872;SDS011;17579;42.690;2.586;2023-08-01T11:27:06;4.90;;;4.40;;
30872;SDS011;17579;42.690;2.586;2023-08-01T11:29:37;4.03;;;3.70;;
30872;SDS011;17579;42.690;2.586;2023-08-01T11:32:09;4.18;;;3.78;;
30872;SDS011;17579;42.690;2.586;2023-08-01T11:34:40;3.38;;;3.10;;
30872;SDS011;17579;42.690;2.586;2023-08-01T11:37:10;4.43;;;3.55;;
30872;SDS011;17579;42.690;2.586;2023-08-01T11:39:36;3.50;;;3.20;;
30872;SDS011;17579;42.690;2.586;2023-08-01T11:42:02;3.13;;;2.92;;
30872;SDS011;17579;42.690;2.586;2023-08-01T11:44:31;3.25;;;3.05;;
30872;SDS011;17579;42.690;2.586;2023-08-01T11:46:59;2.63;;;2.42;;
30872;SDS011;17579;42.690;2.586;2023-08-01T11:49:45;3.25;;;2.95;;
30872;SDS011;17579;42.690;2.586;2023-08-01T11:54:45;3.00;;;2.80;;
30872;SDS011;17579;42.690;2.586;2023-08-01T11:57:14;2.60;;;2.40;;
30872;SDS011;17579;42.690;2.586;2023-08-01T12:02:08;2.47;;;2.28;;
30872;SDS011;17579;42.690;2.586;2023-08-01T12:04:38;2.40;;;2.20;;
30872;SDS011;17579;42.690;2.586;2023-08-01T12:07:14;2.35;;;2.10;;
30872;SDS011;17579;42.690;2.586;2023-08-01T12:12:43;2.40;;;2.20;;
30872;SDS011;17579;42.690;2.586;2023-08-01T12:15:33;2.25;;;2.10;;
30872;SDS011;17579;42.690;2.586;2023-08-01T12:18:03;2.00;;;1.90;;
30872;SDS011;17579;42.690;2.586;2023-08-01T12:20:31;2.15;;;2.03;;
30872;SDS011;17579;42.690;2.586;2023-08-01T12:23:15;2.20;;;2.08;;
30872;SDS011;17579;42.690;2.586;2023-08-01T12:25:44;2.45;;;2.08;;
30872;SDS011;17579;42.690;2.586;2023-08-01T12:28:19;2.08;;;1.98;;
30872;SDS011;17579;42.690;2.586;2023-08-01T12:31:18;2.25;;;2.00;;
30872;SDS011;17579;42.690;2.586;2023-08-01T12:33:43;2.20;;;2.10;;
30872;SDS011;17579;42.690;2.586;2023-08-01T12:36:14;2.38;;;2.20;;
30872;SDS011;17579;42.690;2.586;2023-08-01T12:38:41;2.50;;;2.30;;
30872;SDS011;17579;42.690;2.586;2023-08-01T12:41:17;2.55;;;2.35;;
30872;SDS011;17579;42.690;2.586;2023-08-01T12:43:48;2.70;;;2.50;;
30872;SDS011;17579;42.690;2.586;2023-08-01T12:46:50;2.53;;;2.33;;
30872;SDS011;17579;42.690;2.586;2023-08-01T12:50:37;2.67;;;2.47;;
30872;SDS011;17579;42.690;2.586;2023-08-01T12:52:23;2.65;;;2.45;;
30872;SDS011;17579;42.690;2.586;2023-08-01T12:55:05;2.60;;;2.40;;
30872;SDS011;17579;42.690;2.586;2023-08-01T12:57:50;2.60;;;2.40;;
30872;SDS011;17579;42.690;2.586;2023-08-01T13:00:21;2.70;;;2.50;;
30872;SDS011;17579;42.690;2.586;2023-08-01T13:03:02;2.30;;;2.20;;
30872;SDS011;17579;42.690;2.586;2023-08-01T13:05:44;2.22;;;2.13;;
30872;SDS011;17579;42.690;2.586;2023-08-01T13:08:33;2.78;;;2.22;;
30872;SDS011;17579;42.690;2.586;2023-08-01T13:11:47;2.13;;;2.03;;
30872;SDS011;17579;42.690;2.586;2023-08-01T13:17:04;2.45;;;2.25;;
30872;SDS011;17579;42.690;2.586;2023-08-01T13:20:10;2.50;;;2.30;;
30872;SDS011;17579;42.690;2.586;2023-08-01T13:23:03;3.75;;;2.40;;
30872;SDS011;17579;42.690;2.586;2023-08-01T13:25:44;2.30;;;2.10;;
30872;SDS011;17579;42.690;2.586;2023-08-01T13:28:29;1.80;;;1.70;;
30872;SDS011;17579;42.690;2.586;2023-08-01T13:31:31;2.42;;;2.22;;
30872;SDS011;17579;42.690;2.586;2023-08-01T13:34:17;2.00;;;1.90;;
30872;SDS011;17579;42.690;2.586;2023-08-01T13:37:02;2.28;;;1.77;;
30872;SDS011;17579;42.690;2.586;2023-08-01T13:39:30;2.58;;;1.80;;
30872;SDS011;17579;42.690;2.586;2023-08-01T13:41:58;1.75;;;1.65;;
30872;SDS011;17579;42.690;2.586;2023-08-01T13:44:25;1.80;;;1.70;;
30872;SDS011;17579;42.690;2.586;2023-08-01T13:47:01;1.63;;;1.52;;
30872;SDS011;17579;42.690;2.586;2023-08-01T13:49:30;1.60;;;1.50;;
30872;SDS011;17579;42.690;2.586;2023-08-01T13:52:00;1.80;;;1.70;;
30872;SDS011;17579;42.690;2.586;2023-08-01T13:54:39;1.67;;;1.33;;
30872;SDS011;17579;42.690;2.586;2023-08-01T13:57:17;1.42;;;1.33;;
30872;SDS011;17579;42.690;2.586;2023-08-01T13:59:53;1.58;;;1.50;;
30872;SDS011;17579;42.690;2.586;2023-08-01T14:02:31;2.28;;;1.67;;
30872;SDS011;17579;42.690;2.586;2023-08-01T14:04:57;4.00;;;1.60;;
30872;SDS011;17579;42.690;2.586;2023-08-01T14:07:23;1.60;;;1.50;;
30872;SDS011;17579;42.690;2.586;2023-08-01T14:10:06;1.58;;;1.48;;
30872;SDS011;17579;42.690;2.586;2023-08-01T14:12:42;1.40;;;1.30;;
30872;SDS011;17579;42.690;2.586;2023-08-01T14:15:08;1.42;;;1.35;;
30872;SDS011;17579;42.690;2.586;2023-08-01T14:17:54;1.38;;;1.38;;
30872;SDS011;17579;42.690;2.586;2023-08-01T14:20:40;1.60;;;1.35;;
30872;SDS011;17579;42.690;2.586;2023-08-01T14:23:06;1.60;;;1.50;;
30872;SDS011;17579;42.690;2.586;2023-08-01T14:25:34;1.33;;;1.23;;
30872;SDS011;17579;42.690;2.586;2023-08-01T14:28:00;1.38;;;1.27;;
30872;SDS011;17579;42.690;2.586;2023-08-01T14:30:36;1.40;;;1.30;;
30872;SDS011;17579;42.690;2.586;2023-08-01T14:33:05;1.73;;;1.30;;
30872;SDS011;17579;42.690;2.586;2023-08-01T14:35:40;1.50;;;1.40;;
30872;SDS011;17579;42.690;2.586;2023-08-01T14:38:07;1.20;;;1.20;;
30872;SDS011;17579;42.690;2.586;2023-08-01T14:40:38;1.10;;;1.10;;
30872;SDS011;17579;42.690;2.586;2023-08-01T14:43:04;1.30;;;1.20;;
30872;SDS011;17579;42.690;2.586;2023-08-01T14:45:36;1.60;;;1.50;;
30872;SDS011;17579;42.690;2.586;2023-08-01T14:48:06;1.25;;;1.15;;
30872;SDS011;17579;42.690;2.586;2023-08-01T14:51:04;1.27;;;1.17;;
30872;SDS011;17579;42.690;2.586;2023-08-01T14:53:41;1.20;;;1.20;;
30872;SDS011;17579;42.690;2.586;2023-08-01T14:56:10;1.08;;;1.08;;
30872;SDS011;17579;42.690;2.586;2023-08-01T14:58:59;1.20;;;1.20;;
30872;SDS011;17579;42.690;2.586;2023-08-01T15:01:32;1.10;;;1.10;;
30872;SDS011;17579;42.690;2.586;2023-08-01T15:06:49;1.60;;;1.00;;
30872;SDS011;17579;42.690;2.586;2023-08-01T15:09:29;1.20;;;1.20;;
30872;SDS011;17579;42.690;2.586;2023-08-01T15:12:00;1.50;;;1.40;;
30872;SDS011;17579;42.690;2.586;2023-08-01T15:14:29;1.13;;;1.13;;
30872;SDS011;17579;42.690;2.586;2023-08-01T15:17:04;2.15;;;0.90;;
30872;SDS011;17579;42.690;2.586;2023-08-01T15:19:35;0.90;;;0.90;;
30872;SDS011;17579;42.690;2.586;2023-08-01T15:22:12;1.25;;;1.25;;
30872;SDS011;17579;42.690;2.586;2023-08-01T15:24:39;1.20;;;1.10;;
30872;SDS011;17579;42.690;2.586;2023-08-01T15:27:08;0.98;;;0.98;;
30872;SDS011;17579;42.690;2.586;2023-08-01T15:29:39;2.15;;;1.48;;
30872;SDS011;17579;42.690;2.586;2023-08-01T15:32:05;1.10;;;1.10;;
30872;SDS011;17579;42.690;2.586;2023-08-01T15:34:34;1.00;;;1.00;;
30872;SDS011;17579;42.690;2.586;2023-08-01T15:37:10;1.23;;;1.13;;
30872;SDS011;17579;42.690;2.586;2023-08-01T15:39:44;1.33;;;1.23;;
30872;SDS011;17579;42.690;2.586;2023-08-01T15:42:13;1.40;;;1.30;;
30872;SDS011;17579;42.690;2.586;2023-08-01T15:44:41;1.50;;;1.40;;
30872;SDS011;17579;42.690;2.586;2023-08-01T15:47:11;0.80;;;0.80;;
30872;SDS011;17579;42.690;2.586;2023-08-01T15:49:39;1.00;;;1.00;;
30872;SDS011;17579;42.690;2.586;2023-08-01T15:52:10;1.83;;;1.17;;
30872;SDS011;17579;42.690;2.586;2023-08-01T15:57:38;1.02;;;1.02;;
30872;SDS011;17579;42.690;2.586;2023-08-01T16:00:04;1.27;;;1.23;;
30872;SDS011;17579;42.690;2.586;2023-08-01T16:02:30;1.67;;;1.20;;
30872;SDS011;17579;42.690;2.586;2023-08-01T16:04:56;0.98;;;0.98;;
30872;SDS011;17579;42.690;2.586;2023-08-01T16:07:27;1.50;;;1.40;;
30872;SDS011;17579;42.690;2.586;2023-08-01T16:09:55;1.40;;;1.30;;
30872;SDS011;17579;42.690;2.586;2023-08-01T16:12:22;1.27;;;1.27;;